Moyie, Canada
Current Conditions -  °F | °C
As of 6:00 PM on Wednesday 22 Oct 2014 (Local Time) from CYXC Reporting Station
Light Rain Light Rain  
Wind Chill: 45°   Ceiling: 4500
Heat Index: 48°   Visibility: 15mi
Dew Point: 41°   Wind: 7mph
Humidity: 76%   Direction: 170°S
Pressure: 29.86"   Gusts: NA
Location:  49.28°N, 115.83°W
Report Text: CYXC 230000Z 17006KT 15SM -RA OVC045 09/05 A2986 RMK SC8 -RA INTMT SLP121 DENSITY ALT 3100FT
Loading
Personal Weather Stations






























Interactive Weather Map
Tropical Storm Tracking
New forecast layout! Learn more

10-Day Weather Forecast

Advertisements
Track Severe Weather on mobile